Time;durP1;ratioP1;P1;durP2;ratioP2;P2;SDS_P1;SDS_P2;PMS_P1;PMS_P2;Temp;Humidity;BMP_temperature;BMP_pressure;BME280_temperature;BME280_humidity;BME280_pressure;Samples;Min_cycle;Max_cycle;Signal;HPM_P1;HPM_P2
2023/10/24 00:00:15;;;;;;;;;;;13.30;99.90;;;;;;5035636;28;19970;-69
2023/10/24 00:02:40;;;;;;;;;;;13.30;99.90;;;;;;5034710;28;19934;-69
2023/10/24 00:05:06;;;;;;;;;;;13.20;99.90;;;;;;5034549;28;20012;-69
2023/10/24 00:07:31;;;;;;;;;;;13.10;99.90;;;;;;5036317;28;19909;-69
2023/10/24 00:09:57;;;;;;;;;;;13.00;99.90;;;;;;5039736;28;19920;-68
2023/10/24 00:12:23;;;;;;;;;;;13.00;99.90;;;;;;5035113;28;19909;-69
2023/10/24 00:14:48;;;;;;;;;;;13.10;99.90;;;;;;5038904;28;19912;-69
2023/10/24 00:17:14;;;;;;;;;;;13.10;99.90;;;;;;5039201;28;20316;-70
2023/10/24 00:19:39;;;;;;;;;;;13.10;99.90;;;;;;5039067;28;19963;-68
2023/10/24 00:22:05;;;;;;;;;;;13.10;99.90;;;;;;5039740;28;20679;-69
2023/10/24 00:24:30;;;;;;;;;;;13.10;99.90;;;;;;5039886;28;20726;-69
2023/10/24 00:26:57;;;;;;;;;;;13.10;99.90;;;;;;5039291;28;19913;-68
2023/10/24 00:29:23;;;;;;;;;;;13.20;99.90;;;;;;5034627;28;20367;-68
2023/10/24 00:31:48;;;;;;;;;;;13.30;99.90;;;;;;5071145;28;19917;-69
2023/10/24 00:34:14;;;;;;;;;;;13.40;99.90;;;;;;5035325;28;19923;-70
2023/10/24 00:36:41;;;;;;;;;;;13.50;99.90;;;;;;5039548;28;19959;-69
2023/10/24 00:39:06;;;;;;;;;;;13.40;99.90;;;;;;5038515;28;20402;-69
2023/10/24 00:41:32;;;;;;;;;;;13.40;99.90;;;;;;5035374;28;19909;-68
2023/10/24 00:43:58;;;;;;;;;;;13.30;99.90;;;;;;5039096;28;19917;-68
2023/10/24 00:46:23;;;;;;;;;;;13.10;99.90;;;;;;5038770;28;19935;-69
2023/10/24 00:48:49;;;;;;;;;;;13.10;99.90;;;;;;5066523;28;19917;-68
2023/10/24 00:51:15;;;;;;;;;;;13.00;99.90;;;;;;5038571;28;19974;-70
2023/10/24 00:53:41;;;;;;;;;;;13.00;99.90;;;;;;5043025;28;19913;-69
2023/10/24 00:56:07;;;;;;;;;;;13.00;99.90;;;;;;5039048;28;19909;-68
2023/10/24 00:58:34;;;;;;;;;;;13.10;99.90;;;;;;5038359;28;20287;-68
2023/10/24 01:01:00;;;;;;;;;;;13.20;99.90;;;;;;5033537;28;19948;-70
2023/10/24 01:03:26;;;;;;;;;;;13.30;99.90;;;;;;5074275;28;20422;-69
2023/10/24 01:05:51;;;;;;;;;;;13.30;99.90;;;;;;5033923;28;19912;-68
2023/10/24 01:08:17;;;;;;;;;;;13.30;99.90;;;;;;5038281;28;19941;-70
2023/10/24 01:10:43;;;;;;;;;;;13.40;99.90;;;;;;5041391;28;21472;-69
2023/10/24 01:13:09;;;;;;;;;;;13.40;99.90;;;;;;5037273;28;20015;-69
2023/10/24 01:15:34;;;;;;;;;;;13.40;99.90;;;;;;5038047;28;20509;-68
2023/10/24 01:18:00;;;;;;;;;;;13.50;99.90;;;;;;5033932;28;19909;-69
2023/10/24 01:20:25;;;;;;;;;;;13.50;99.90;;;;;;5036680;28;19917;-68
2023/10/24 01:22:51;;;;;;;;;;;13.60;99.90;;;;;;5070352;28;19919;-69
2023/10/24 01:25:17;;;;;;;;;;;13.60;99.90;;;;;;5038741;28;19917;-68
2023/10/24 01:27:43;;;;;;;;;;;13.40;99.90;;;;;;5042183;28;19908;-70
2023/10/24 01:30:09;;;;;;;;;;;13.30;99.90;;;;;;5041222;28;19919;-69
2023/10/24 01:32:35;;;;;;;;;;;13.30;99.90;;;;;;5035914;28;19956;-68
2023/10/24 01:35:00;;;;;;;;;;;13.30;99.90;;;;;;5035770;28;19952;-69
2023/10/24 01:37:26;;;;;;;;;;;13.20;99.90;;;;;;5037604;28;20209;-69
2023/10/24 01:39:52;;;;;;;;;;;13.20;99.90;;;;;;5036519;28;20645;-68
2023/10/24 01:42:17;;;;;;;;;;;13.10;99.90;;;;;;5053408;28;19917;-68
2023/10/24 01:44:43;;;;;;;;;;;13.00;99.90;;;;;;5040045;28;19959;-70
2023/10/24 01:47:08;;;;;;;;;;;13.00;99.90;;;;;;5039349;28;19959;-69
2023/10/24 01:49:34;;;;;;;;;;;13.00;99.90;;;;;;5035361;28;20390;-68
2023/10/24 01:51:59;;;;;;;;;;;13.00;99.90;;;;;;5030166;28;20368;-69
2023/10/24 01:54:25;;;;;;;;;;;13.10;99.90;;;;;;5041726;28;20611;-69
2023/10/24 01:56:50;;;;;;;;;;;13.20;99.90;;;;;;5036718;28;19912;-69
2023/10/24 01:59:16;;;;;;;;;;;13.20;99.90;;;;;;5033326;28;19920;-69
2023/10/24 02:01:41;;;;;;;;;;;13.20;99.90;;;;;;5041604;28;20257;-69
2023/10/24 02:04:07;;;;;;;;;;;13.30;99.90;;;;;;5036961;28;20545;-68
2023/10/24 02:06:32;;;;;;;;;;;13.40;99.90;;;;;;5037154;28;20382;-68
2023/10/24 02:08:58;;;;;;;;;;;13.40;99.90;;;;;;5037352;28;20454;-69
2023/10/24 02:11:24;;;;;;;;;;;13.50;99.90;;;;;;5037789;28;19917;-69
2023/10/24 02:13:49;;;;;;;;;;;13.50;99.90;;;;;;5069283;28;19916;-69
2023/10/24 02:16:15;;;;;;;;;;;13.40;99.90;;;;;;5037396;28;19916;-70
2023/10/24 02:18:40;;;;;;;;;;;13.40;99.90;;;;;;5041225;28;20272;-68
2023/10/24 02:21:07;;;;;;;;;;;13.50;99.90;;;;;;5035294;28;19944;-69
2023/10/24 02:23:32;;;;;;;;;;;13.50;99.90;;;;;;5032463;28;19912;-69
2023/10/24 02:25:58;;;;;;;;;;;13.60;99.90;;;;;;5035586;28;20429;-69
2023/10/24 02:28:23;;;;;;;;;;;13.70;99.90;;;;;;5032123;28;20016;-69
2023/10/24 02:30:49;;;;;;;;;;;13.70;99.90;;;;;;5036683;28;19974;-68
2023/10/24 02:33:14;;;;;;;;;;;13.60;99.90;;;;;;5033697;28;19917;-69
2023/10/24 02:35:40;;;;;;;;;;;13.50;99.90;;;;;;5034449;28;19932;-69
2023/10/24 02:38:06;;;;;;;;;;;13.30;99.90;;;;;;5032284;28;20053;-68
2023/10/24 02:40:31;;;;;;;;;;;13.20;99.90;;;;;;5038817;28;19913;-67
2023/10/24 02:42:57;;;;;;;;;;;13.10;99.90;;;;;;5036942;28;19917;-67
2023/10/24 02:45:23;;;;;;;;;;;13.00;99.90;;;;;;5033573;28;19956;-68
2023/10/24 02:47:49;;;;;;;;;;;13.10;99.90;;;;;;5037133;28;19913;-69
2023/10/24 02:50:14;;;;;;;;;;;13.10;99.90;;;;;;5036184;28;19921;-68
2023/10/24 02:52:40;;;;;;;;;;;13.10;99.90;;;;;;5030150;28;19939;-67
2023/10/24 02:55:06;;;;;;;;;;;13.00;99.90;;;;;;5036478;28;19913;-67
2023/10/24 02:57:32;;;;;;;;;;;13.00;99.90;;;;;;5034869;28;19995;-67
2023/10/24 02:59:57;;;;;;;;;;;13.00;99.90;;;;;;5032404;28;20008;-68
2023/10/24 03:02:23;;;;;;;;;;;12.90;99.90;;;;;;5038880;28;20265;-67
2023/10/24 03:04:48;;;;;;;;;;;12.80;99.90;;;;;;5032655;28;19955;-69
2023/10/24 03:07:14;;;;;;;;;;;12.80;99.90;;;;;;5036039;28;19917;-67
2023/10/24 03:09:39;;;;;;;;;;;12.80;99.90;;;;;;5035556;28;20167;-68
2023/10/24 03:12:09;;;;;;;;;;;13.00;99.90;;;;;;5034058;28;19915;-68
2023/10/24 03:14:35;;;;;;;;;;;13.00;99.90;;;;;;5035926;28;19963;-69
2023/10/24 03:17:01;;;;;;;;;;;13.00;99.90;;;;;;5035849;28;20376;-68
2023/10/24 03:19:27;;;;;;;;;;;13.00;99.90;;;;;;5036958;28;19919;-69
2023/10/24 03:21:53;;;;;;;;;;;13.10;99.90;;;;;;5036894;28;20487;-68
2023/10/24 03:24:18;;;;;;;;;;;13.10;99.90;;;;;;5034447;28;20000;-67
2023/10/24 03:26:44;;;;;;;;;;;13.20;99.90;;;;;;5035643;28;19924;-68
2023/10/24 03:29:10;;;;;;;;;;;13.20;99.90;;;;;;5034013;28;19911;-68
2023/10/24 03:31:35;;;;;;;;;;;13.30;99.90;;;;;;5035753;28;19932;-68
2023/10/24 03:34:01;;;;;;;;;;;13.30;99.90;;;;;;5034613;28;19921;-69
2023/10/24 03:36:27;;;;;;;;;;;13.40;99.90;;;;;;5032583;28;19931;-69
2023/10/24 03:38:52;;;;;;;;;;;13.40;99.90;;;;;;5036903;28;19948;-68
2023/10/24 03:41:18;;;;;;;;;;;13.50;99.90;;;;;;5039066;28;19928;-70
2023/10/24 03:43:51;;;;;;;;;;;13.50;99.90;;;;;;5036852;28;20126;-68
2023/10/24 03:46:17;;;;;;;;;;;13.60;99.90;;;;;;5039178;28;19996;-68
2023/10/24 03:48:42;;;;;;;;;;;13.60;99.90;;;;;;5037691;28;20012;-68
2023/10/24 03:51:08;;;;;;;;;;;13.60;99.90;;;;;;5039950;28;20600;-68
2023/10/24 03:53:33;;;;;;;;;;;13.60;99.90;;;;;;5040525;28;19908;-68
2023/10/24 03:55:59;;;;;;;;;;;13.50;99.90;;;;;;5040251;28;19909;-69
2023/10/24 03:58:25;;;;;;;;;;;13.40;99.90;;;;;;5035952;28;20065;-68
2023/10/24 04:00:51;;;;;;;;;;;13.30;99.90;;;;;;5033858;28;20000;-70
2023/10/24 04:03:16;;;;;;;;;;;13.30;99.90;;;;;;5041294;28;20241;-68
2023/10/24 04:05:44;;;;;;;;;;;13.20;99.90;;;;;;5034758;28;19913;-71
2023/10/24 04:08:09;;;;;;;;;;;13.10;99.90;;;;;;5039277;28;20375;-69
2023/10/24 04:10:35;;;;;;;;;;;13.00;99.90;;;;;;5033579;28;19916;-67
2023/10/24 04:13:01;;;;;;;;;;;13.00;99.90;;;;;;5039171;28;20531;-67
2023/10/24 04:15:27;;;;;;;;;;;13.00;99.90;;;;;;5039909;28;19919;-68
2023/10/24 04:17:53;;;;;;;;;;;12.90;99.90;;;;;;5039397;28;20360;-68
2023/10/24 04:20:19;;;;;;;;;;;13.00;99.90;;;;;;5038660;28;19924;-68
2023/10/24 04:22:46;;;;;;;;;;;13.10;99.90;;;;;;5038744;28;19948;-67
2023/10/24 04:25:12;;;;;;;;;;;13.00;99.90;;;;;;5036389;28;20304;-67
2023/10/24 04:27:37;;;;;;;;;;;13.00;99.90;;;;;;5038571;28;19913;-67
2023/10/24 04:30:03;;;;;;;;;;;13.00;99.90;;;;;;5034729;28;19917;-68
2023/10/24 04:32:30;;;;;;;;;;;13.00;99.90;;;;;;5037253;28;19955;-68
2023/10/24 04:34:56;;;;;;;;;;;12.90;99.90;;;;;;5034320;28;20010;-67
2023/10/24 04:37:21;;;;;;;;;;;12.80;99.90;;;;;;5039807;28;19982;-69
2023/10/24 04:39:47;;;;;;;;;;;12.70;99.90;;;;;;5039638;28;19919;-69
2023/10/24 04:42:13;;;;;;;;;;;12.80;99.90;;;;;;5034140;28;20358;-69
2023/10/24 04:44:39;;;;;;;;;;;12.80;99.90;;;;;;5038864;28;19913;-70
2023/10/24 04:47:04;;;;;;;;;;;12.80;99.90;;;;;;5039883;28;19931;-69
2023/10/24 04:49:30;;;;;;;;;;;12.80;99.90;;;;;;5040303;28;20334;-69
2023/10/24 04:51:56;;;;;;;;;;;12.80;99.90;;;;;;5038526;28;19913;-70
2023/10/24 04:54:21;;;;;;;;;;;12.90;99.90;;;;;;5033202;28;20400;-69
2023/10/24 04:56:47;;;;;;;;;;;12.90;99.90;;;;;;5038873;28;20641;-69
2023/10/24 04:59:13;;;;;;;;;;;12.70;99.90;;;;;;5039360;28;19916;-69
2023/10/24 05:01:39;;;;;;;;;;;12.70;99.90;;;;;;5037155;28;19909;-68
2023/10/24 05:04:05;;;;;;;;;;;12.70;99.90;;;;;;5034184;28;19909;-69
2023/10/24 05:06:30;;;;;;;;;;;12.70;99.90;;;;;;5038573;28;19916;-69
2023/10/24 05:08:56;;;;;;;;;;;12.70;99.90;;;;;;5039005;28;20447;-68
2023/10/24 05:11:21;;;;;;;;;;;12.70;99.90;;;;;;5035012;28;19917;-69
2023/10/24 05:13:47;;;;;;;;;;;12.70;99.90;;;;;;5038682;28;20008;-65
2023/10/24 05:16:12;;;;;;;;;;;12.70;99.90;;;;;;5038487;28;20035;-64
2023/10/24 05:18:38;;;;;;;;;;;12.70;99.90;;;;;;5042467;28;19974;-63
2023/10/24 05:21:03;;;;;;;;;;;12.60;99.90;;;;;;5032931;28;19909;-62
2023/10/24 05:23:29;;;;;;;;;;;12.60;99.90;;;;;;5035918;28;20332;-63
2023/10/24 05:25:55;;;;;;;;;;;12.60;99.90;;;;;;5037617;28;19913;-64
2023/10/24 05:28:21;;;;;;;;;;;12.60;99.90;;;;;;5038137;28;19913;-64
2023/10/24 05:30:46;;;;;;;;;;;12.60;99.90;;;;;;5038078;28;19962;-63
2023/10/24 05:33:12;;;;;;;;;;;12.60;99.90;;;;;;5037596;28;19908;-63
2023/10/24 05:35:37;;;;;;;;;;;12.60;99.90;;;;;;5036127;28;19913;-69
2023/10/24 05:38:03;;;;;;;;;;;12.70;99.90;;;;;;5034117;28;20360;-69
2023/10/24 05:40:30;;;;;;;;;;;12.70;99.90;;;;;;5036627;28;19913;-68
2023/10/24 05:42:55;;;;;;;;;;;12.70;99.90;;;;;;5036787;28;19956;-68
2023/10/24 05:45:22;;;;;;;;;;;12.70;99.90;;;;;;5035459;28;19952;-71
2023/10/24 05:47:47;;;;;;;;;;;12.70;99.90;;;;;;5037035;28;20314;-70
2023/10/24 05:50:13;;;;;;;;;;;12.80;99.90;;;;;;5038830;28;20047;-70
2023/10/24 05:52:38;;;;;;;;;;;12.80;99.90;;;;;;5038098;28;19991;-70
2023/10/24 05:55:04;;;;;;;;;;;12.70;99.90;;;;;;5034276;28;19915;-70
2023/10/24 05:57:29;;;;;;;;;;;12.70;99.90;;;;;;5038021;28;19920;-71
2023/10/24 05:59:55;;;;;;;;;;;12.80;99.90;;;;;;5037130;28;20090;-70
2023/10/24 06:02:21;;;;;;;;;;;12.80;99.90;;;;;;5038068;28;20540;-71
2023/10/24 06:04:46;;;;;;;;;;;12.90;99.90;;;;;;5038369;28;19916;-71
2023/10/24 06:07:13;;;;;;;;;;;12.90;99.90;;;;;;5037746;28;19920;-71
2023/10/24 06:09:39;;;;;;;;;;;13.00;99.90;;;;;;5032676;28;20670;-72
2023/10/24 06:12:05;;;;;;;;;;;13.10;99.90;;;;;;5037829;28;20383;-71
2023/10/24 06:14:32;;;;;;;;;;;13.10;99.90;;;;;;5035846;28;19913;-71
2023/10/24 06:17:00;;;;;;;;;;;13.20;99.90;;;;;;5038957;28;19912;-70
2023/10/24 06:19:27;;;;;;;;;;;13.20;99.90;;;;;;5035155;28;19948;-70
2023/10/24 06:21:53;;;;;;;;;;;13.10;99.90;;;;;;5038379;28;20322;-71
2023/10/24 06:24:19;;;;;;;;;;;13.10;99.90;;;;;;5037315;28;20328;-70
2023/10/24 06:26:44;;;;;;;;;;;13.20;99.90;;;;;;5032527;28;19928;-70
2023/10/24 06:29:10;;;;;;;;;;;13.20;99.90;;;;;;5035138;28;19913;-70
2023/10/24 06:31:35;;;;;;;;;;;13.20;99.90;;;;;;5037432;28;19917;-69
2023/10/24 06:34:03;;;;;;;;;;;13.10;99.90;;;;;;5032487;28;20526;-70
2023/10/24 06:36:29;;;;;;;;;;;13.10;99.90;;;;;;5035799;28;19917;-71
2023/10/24 06:38:54;;;;;;;;;;;13.10;99.90;;;;;;5037600;28;19916;-71
2023/10/24 06:41:20;;;;;;;;;;;13.10;99.90;;;;;;5034980;28;19917;-72
2023/10/24 06:43:45;;;;;;;;;;;13.10;99.90;;;;;;5039050;28;19916;-70
2023/10/24 06:46:11;;;;;;;;;;;13.20;99.90;;;;;;5033173;28;19924;-70
2023/10/24 06:48:36;;;;;;;;;;;13.20;99.90;;;;;;5037731;28;19913;-70
2023/10/24 06:51:02;;;;;;;;;;;13.20;99.90;;;;;;5041655;28;19920;-70
2023/10/24 06:53:28;;;;;;;;;;;13.20;99.90;;;;;;5036055;28;20356;-70
2023/10/24 06:56:00;;;;;;;;;;;13.10;99.90;;;;;;5032317;28;20318;-71
2023/10/24 06:58:26;;;;;;;;;;;13.10;99.90;;;;;;5065656;28;19920;-69
2023/10/24 07:00:51;;;;;;;;;;;13.20;99.90;;;;;;5035715;28;19909;-70
2023/10/24 07:03:17;;;;;;;;;;;13.30;99.90;;;;;;5035170;28;20415;-71
2023/10/24 07:05:48;;;;;;;;;;;13.50;99.90;;;;;;5037547;28;19913;-71
2023/10/24 07:08:13;;;;;;;;;;;13.50;99.90;;;;;;5032260;28;19932;-71
2023/10/24 07:10:39;;;;;;;;;;;13.50;99.90;;;;;;5037236;28;19913;-71
2023/10/24 07:13:04;;;;;;;;;;;13.50;99.90;;;;;;5038831;28;20411;-71
2023/10/24 07:15:30;;;;;;;;;;;13.50;99.90;;;;;;5031160;28;19962;-71
2023/10/24 07:17:55;;;;;;;;;;;13.40;99.90;;;;;;5036327;28;19912;-71
2023/10/24 07:20:21;;;;;;;;;;;13.40;99.90;;;;;;5034611;28;20433;-72
2023/10/24 07:22:46;;;;;;;;;;;13.50;99.90;;;;;;5039921;28;20346;-71
2023/10/24 07:25:12;;;;;;;;;;;13.50;99.90;;;;;;5033434;28;20342;-71
2023/10/24 07:27:37;;;;;;;;;;;13.50;99.90;;;;;;5036298;28;19943;-71
2023/10/24 07:30:03;;;;;;;;;;;13.60;99.90;;;;;;5033040;28;20368;-70
2023/10/24 07:32:29;;;;;;;;;;;13.70;99.90;;;;;;5034785;28;19933;-70
2023/10/24 07:34:56;;;;;;;;;;;13.70;99.90;;;;;;5051804;28;19920;-70
2023/10/24 07:37:22;;;;;;;;;;;13.80;99.90;;;;;;5034380;28;20360;-72
2023/10/24 07:39:48;;;;;;;;;;;13.90;99.90;;;;;;5039863;28;20291;-70
2023/10/24 07:42:13;;;;;;;;;;;14.00;99.90;;;;;;5036294;28;19924;-70
2023/10/24 07:44:39;;;;;;;;;;;14.10;99.90;;;;;;5031807;28;19915;-71
2023/10/24 07:47:05;;;;;;;;;;;14.20;99.90;;;;;;5035191;28;19996;-70
2023/10/24 07:49:33;;;;;;;;;;;14.10;99.90;;;;;;5035451;28;19913;-71
2023/10/24 07:51:58;;;;;;;;;;;14.10;99.90;;;;;;5036603;28;19924;-71
2023/10/24 07:54:24;;;;;;;;;;;14.10;99.90;;;;;;5032989;28;19913;-71
2023/10/24 07:56:49;;;;;;;;;;;14.00;99.90;;;;;;5035788;28;20583;-72
2023/10/24 07:59:15;;;;;;;;;;;14.00;99.90;;;;;;5068509;28;19913;-71
2023/10/24 08:01:41;;;;;;;;;;;14.10;99.90;;;;;;5035762;28;20008;-71
2023/10/24 08:04:06;;;;;;;;;;;14.20;99.90;;;;;;5064172;28;19991;-71
2023/10/24 08:06:32;;;;;;;;;;;14.20;99.90;;;;;;5034926;28;19937;-71
2023/10/24 08:08:57;;;;;;;;;;;14.20;99.90;;;;;;5036965;28;19925;-71
2023/10/24 08:11:23;;;;;;;;;;;14.10;99.90;;;;;;5036987;28;19916;-71
2023/10/24 08:13:48;;;;;;;;;;;14.20;99.90;;;;;;5035349;28;19909;-71
2023/10/24 08:16:14;;;;;;;;;;;14.20;99.90;;;;;;5034674;28;20011;-71
2023/10/24 08:18:40;;;;;;;;;;;14.10;99.90;;;;;;5034646;28;19909;-71
2023/10/24 08:21:07;;;;;;;;;;;14.20;99.90;;;;;;5034698;28;19909;-71
2023/10/24 08:23:32;;;;;;;;;;;14.20;99.90;;;;;;5035442;28;19999;-71
2023/10/24 08:25:58;;;;;;;;;;;14.20;99.90;;;;;;5038209;28;20689;-71
2023/10/24 08:28:23;;;;;;;;;;;14.20;99.90;;;;;;5034303;28;20027;-71
2023/10/24 08:30:49;;;;;;;;;;;14.40;99.90;;;;;;5039252;28;19955;-71
2023/10/24 08:33:16;;;;;;;;;;;14.40;99.90;;;;;;5038827;28;20011;-71
2023/10/24 08:35:44;;;;;;;;;;;14.40;99.90;;;;;;5036379;28;19913;-71
2023/10/24 08:38:09;;;;;;;;;;;14.60;99.90;;;;;;5039080;28;20007;-71
2023/10/24 08:40:35;;;;;;;;;;;14.80;99.90;;;;;;5033944;28;20082;-71
2023/10/24 08:43:02;;;;;;;;;;;14.80;99.90;;;;;;5039228;28;20435;-71
2023/10/24 08:45:28;;;;;;;;;;;14.80;99.90;;;;;;5039253;28;19912;-70
2023/10/24 08:47:54;;;;;;;;;;;14.80;99.90;;;;;;5039640;28;19920;-71
2023/10/24 08:50:19;;;;;;;;;;;14.90;99.90;;;;;;5072315;28;19921;-71
2023/10/24 08:52:45;;;;;;;;;;;14.80;99.90;;;;;;5039748;28;19913;-71
2023/10/24 08:55:11;;;;;;;;;;;14.80;99.90;;;;;;5039504;28;19912;-71
2023/10/24 08:57:39;;;;;;;;;;;14.90;99.90;;;;;;5033670;28;20356;-71
2023/10/24 09:00:08;;;;;;;;;;;14.90;99.90;;;;;;5039518;28;19915;-70
2023/10/24 09:02:33;;;;;;;;;;;15.00;99.90;;;;;;5037493;28;19913;-70
2023/10/24 09:04:59;;;;;;;;;;;14.90;99.90;;;;;;5037511;28;19913;-71
2023/10/24 09:07:24;;;;;;;;;;;14.90;99.90;;;;;;5035281;28;20283;-71
2023/10/24 09:09:50;;;;;;;;;;;14.80;99.90;;;;;;5043550;28;20161;-71
2023/10/24 09:12:16;;;;;;;;;;;14.80;99.90;;;;;;5034893;28;19909;-71
2023/10/24 09:14:45;;;;;;;;;;;14.70;99.90;;;;;;5044423;28;20620;-70
2023/10/24 09:17:11;;;;;;;;;;;14.60;99.90;;;;;;5035334;28;19913;-71
2023/10/24 09:19:39;;;;;;;;;;;14.70;99.90;;;;;;5037830;28;19919;-70
2023/10/24 09:22:05;;;;;;;;;;;14.60;99.90;;;;;;5034223;28;20277;-71
2023/10/24 09:24:31;;;;;;;;;;;14.60;99.90;;;;;;5038273;28;19913;-71
2023/10/24 09:26:59;;;;;;;;;;;14.50;99.90;;;;;;5036385;28;19916;-71
2023/10/24 09:29:25;;;;;;;;;;;14.50;99.90;;;;;;5037288;28;20360;-71
2023/10/24 09:31:51;;;;;;;;;;;14.50;99.90;;;;;;5037675;28;20285;-72
2023/10/24 09:34:17;;;;;;;;;;;14.50;99.90;;;;;;5036883;28;19913;-71
2023/10/24 09:36:43;;;;;;;;;;;14.60;99.90;;;;;;5038081;28;19909;-71
2023/10/24 09:39:10;;;;;;;;;;;14.50;99.90;;;;;;5038564;28;19923;-71
2023/10/24 09:41:37;;;;;;;;;;;14.30;99.90;;;;;;5039951;28;19908;-71
2023/10/24 09:44:03;;;;;;;;;;;14.30;99.90;;;;;;5035876;28;20357;-71
2023/10/24 09:46:29;;;;;;;;;;;14.20;99.90;;;;;;5040581;28;19924;-70
2023/10/24 09:48:58;;;;;;;;;;;14.30;99.90;;;;;;5036147;28;19909;-71
2023/10/24 09:51:24;;;;;;;;;;;14.20;99.90;;;;;;5036508;28;20000;-71
2023/10/24 09:53:50;;;;;;;;;;;14.30;99.90;;;;;;5036643;28;20011;-70
2023/10/24 09:56:16;;;;;;;;;;;14.40;99.90;;;;;;5035898;28;19916;-71
2023/10/24 09:58:42;;;;;;;;;;;14.60;99.90;;;;;;5033041;28;19913;-71
2023/10/24 10:01:08;;;;;;;;;;;14.90;99.90;;;;;;5037736;28;20429;-71
2023/10/24 10:03:34;;;;;;;;;;;15.00;99.90;;;;;;5038012;28;19909;-71
2023/10/24 10:06:04;;;;;;;;;;;15.00;99.90;;;;;;5033780;28;19913;-71
2023/10/24 10:08:30;;;;;;;;;;;14.90;99.90;;;;;;5037316;28;19920;-71
2023/10/24 10:10:56;;;;;;;;;;;14.80;99.90;;;;;;5035821;28;19967;-71
2023/10/24 10:13:27;;;;;;;;;;;14.90;99.90;;;;;;5037957;28;19912;-71
2023/10/24 10:15:55;;;;;;;;;;;14.90;99.90;;;;;;5034690;28;19917;-71
2023/10/24 10:18:24;;;;;;;;;;;14.90;99.90;;;;;;5038506;28;19913;-71
2023/10/24 10:20:55;;;;;;;;;;;14.80;99.90;;;;;;5038411;28;20383;-71
2023/10/24 10:23:23;;;;;;;;;;;14.60;99.90;;;;;;5038504;28;20027;-71
2023/10/24 10:26:07;;;;;;;;;;;14.40;99.90;;;;;;5039310;28;20376;-71
2023/10/24 10:28:32;;;;;;;;;;;14.40;99.90;;;;;;5033690;28;20000;-71
2023/10/24 10:31:04;;;;;;;;;;;14.40;99.90;;;;;;5038552;28;20505;-71
2023/10/24 10:33:30;;;;;;;;;;;14.40;99.90;;;;;;5033350;28;20366;-71
2023/10/24 10:36:02;;;;;;;;;;;14.20;99.90;;;;;;5037671;28;19913;-71
2023/10/24 10:38:40;;;;;;;;;;;14.30;99.90;;;;;;5045867;28;20427;-71
2023/10/24 10:41:21;;;;;;;;;;;14.20;99.90;;;;;;5035480;28;19948;-71
2023/10/24 10:43:50;;;;;;;;;;;14.00;99.90;;;;;;5037925;28;20316;-71
2023/10/24 10:46:20;;;;;;;;;;;14.00;99.90;;;;;;5033528;28;19963;-71
2023/10/24 10:48:49;;;;;;;;;;;14.00;99.90;;;;;;5036003;28;19943;-70
2023/10/24 10:51:24;;;;;;;;;;;14.10;99.90;;;;;;5035638;28;19982;-71
2023/10/24 10:53:50;;;;;;;;;;;14.10;99.90;;;;;;5036758;28;19983;-71
2023/10/24 10:56:19;;;;;;;;;;;14.20;99.90;;;;;;5037180;28;20002;-71
2023/10/24 10:59:03;;;;;;;;;;;14.20;99.90;;;;;;5031867;28;20498;-71
2023/10/24 11:01:33;;;;;;;;;;;14.20;99.90;;;;;;5030560;28;19940;-72
2023/10/24 11:03:59;;;;;;;;;;;14.20;99.90;;;;;;5036860;28;20283;-71
2023/10/24 11:06:28;;;;;;;;;;;14.30;99.90;;;;;;5037137;28;19939;-71
2023/10/24 11:09:06;;;;;;;;;;;14.30;99.90;;;;;;5034329;28;20023;-72
2023/10/24 11:12:07;;;;;;;;;;;14.30;99.90;;;;;;5028740;28;20148;-71
2023/10/24 11:14:33;;;;;;;;;;;14.30;99.90;;;;;;5035191;28;19935;-71
2023/10/24 11:17:02;;;;;;;;;;;14.50;99.90;;;;;;5033395;28;19913;-72
2023/10/24 11:19:28;;;;;;;;;;;14.50;99.90;;;;;;5035100;28;20382;-70
2023/10/24 11:21:57;;;;;;;;;;;14.50;99.90;;;;;;5037561;28;19913;-72
2023/10/24 11:24:23;;;;;;;;;;;14.50;99.90;;;;;;5068684;28;20386;-71
2023/10/24 11:26:54;;;;;;;;;;;14.50;99.90;;;;;;5036036;28;19917;-72
2023/10/24 11:29:20;;;;;;;;;;;14.40;99.90;;;;;;5035038;28;19924;-70
2023/10/24 11:31:46;;;;;;;;;;;14.30;99.90;;;;;;5036382;28;19916;-70
2023/10/24 11:34:12;;;;;;;;;;;14.20;99.90;;;;;;5036392;28;20386;-71
2023/10/24 11:36:44;;;;;;;;;;;14.10;99.90;;;;;;5032187;28;19996;-70
2023/10/24 11:39:14;;;;;;;;;;;14.10;99.90;;;;;;5036276;28;19920;-71
2023/10/24 11:41:43;;;;;;;;;;;14.10;99.90;;;;;;5035661;28;19913;-71
2023/10/24 11:44:11;;;;;;;;;;;14.10;99.90;;;;;;5032575;28;19916;-71
2023/10/24 11:46:41;;;;;;;;;;;14.10;99.90;;;;;;5036422;28;20392;-71
2023/10/24 11:49:06;;;;;;;;;;;14.10;99.90;;;;;;5034382;28;19912;-71
2023/10/24 11:51:32;;;;;;;;;;;14.20;99.90;;;;;;5038442;28;19935;-71
2023/10/24 11:54:01;;;;;;;;;;;14.20;99.90;;;;;;5032991;28;20011;-71
2023/10/24 11:56:27;;;;;;;;;;;14.20;99.90;;;;;;5035652;28;19912;-70
2023/10/24 11:58:54;;;;;;;;;;;14.20;99.90;;;;;;5035765;28;20388;-72
2023/10/24 12:01:22;;;;;;;;;;;14.20;99.90;;;;;;5036557;28;19917;-71
2023/10/24 12:03:47;;;;;;;;;;;14.10;99.90;;;;;;5039966;28;19953;-72
2023/10/24 12:06:19;;;;;;;;;;;14.00;99.90;;;;;;5036117;28;19956;-71
2023/10/24 12:08:45;;;;;;;;;;;13.90;99.90;;;;;;5039523;28;19925;-71
2023/10/24 12:11:10;;;;;;;;;;;13.90;99.90;;;;;;5036183;28;19920;-71
2023/10/24 12:13:36;;;;;;;;;;;13.70;99.90;;;;;;5040481;28;20140;-70
2023/10/24 12:16:02;;;;;;;;;;;13.70;99.90;;;;;;5037079;28;20364;-72
2023/10/24 12:18:29;;;;;;;;;;;13.60;99.90;;;;;;5041653;28;19913;-72
2023/10/24 12:20:55;;;;;;;;;;;13.40;99.90;;;;;;5041493;28;19909;-71
2023/10/24 12:23:21;;;;;;;;;;;13.30;99.90;;;;;;5040040;28;20410;-71
2023/10/24 12:25:47;;;;;;;;;;;13.20;99.90;;;;;;5040518;28;19962;-71
2023/10/24 12:28:12;;;;;;;;;;;13.20;99.90;;;;;;5036588;28;21052;-72
2023/10/24 12:30:38;;;;;;;;;;;13.10;99.90;;;;;;5039455;28;19991;-72
2023/10/24 12:33:04;;;;;;;;;;;13.10;99.90;;;;;;5040640;28;19913;-72
2023/10/24 12:35:29;;;;;;;;;;;13.00;99.90;;;;;;5037212;28;19959;-73
2023/10/24 12:37:55;;;;;;;;;;;13.00;99.90;;;;;;5037467;28;19912;-71
2023/10/24 12:40:20;;;;;;;;;;;12.90;99.90;;;;;;5040405;28;19916;-71
2023/10/24 12:42:46;;;;;;;;;;;13.00;99.90;;;;;;5040190;28;20371;-71
2023/10/24 12:45:11;;;;;;;;;;;13.00;99.90;;;;;;5040107;28;20611;-71
2023/10/24 12:47:37;;;;;;;;;;;13.00;99.90;;;;;;5039372;28;19921;-71
2023/10/24 12:50:03;;;;;;;;;;;12.90;99.90;;;;;;5037642;28;20260;-72
2023/10/24 12:52:29;;;;;;;;;;;12.90;99.90;;;;;;5039938;28;20418;-72
2023/10/24 12:54:55;;;;;;;;;;;12.90;99.90;;;;;;5040789;28;19908;-72
2023/10/24 12:57:21;;;;;;;;;;;12.90;99.90;;;;;;5039696;28;20023;-71
2023/10/24 12:59:47;;;;;;;;;;;13.00;99.90;;;;;;5038244;28;20368;-71
2023/10/24 13:02:13;;;;;;;;;;;13.00;99.90;;;;;;5037886;28;19920;-71
2023/10/24 13:04:39;;;;;;;;;;;13.10;99.90;;;;;;5035525;28;19924;-71
2023/10/24 13:07:05;;;;;;;;;;;13.10;99.90;;;;;;5038705;28;19909;-71
2023/10/24 13:09:34;;;;;;;;;;;13.20;99.90;;;;;;5035304;28;20547;-72
2023/10/24 13:12:00;;;;;;;;;;;13.20;99.90;;;;;;5039316;28;19913;-72
2023/10/24 13:14:26;;;;;;;;;;;13.20;99.90;;;;;;5034781;28;19974;-72
2023/10/24 13:16:51;;;;;;;;;;;13.30;99.90;;;;;;5039028;28;20432;-71
2023/10/24 13:19:17;;;;;;;;;;;13.20;99.90;;;;;;5039041;28;20407;-71
2023/10/24 13:21:43;;;;;;;;;;;13.20;99.90;;;;;;5035202;28;20360;-71
2023/10/24 13:24:08;;;;;;;;;;;13.20;99.90;;;;;;5038826;28;19912;-71
2023/10/24 13:26:34;;;;;;;;;;;13.20;99.90;;;;;;5038908;28;19987;-71
2023/10/24 13:29:01;;;;;;;;;;;13.30;99.90;;;;;;5038786;28;19932;-72
2023/10/24 13:31:26;;;;;;;;;;;13.20;99.90;;;;;;5035033;28;20007;-71
2023/10/24 13:33:52;;;;;;;;;;;13.30;99.90;;;;;;5038340;28;20583;-70
2023/10/24 13:36:17;;;;;;;;;;;13.20;99.90;;;;;;5038859;28;20005;-71
2023/10/24 13:38:43;;;;;;;;;;;13.20;99.90;;;;;;5034872;28;19924;-71
2023/10/24 13:41:08;;;;;;;;;;;13.20;99.90;;;;;;5038652;28;20362;-71
2023/10/24 13:43:34;;;;;;;;;;;13.20;99.90;;;;;;5033733;28;19913;-71
2023/10/24 13:46:00;;;;;;;;;;;13.20;99.90;;;;;;5038285;28;19905;-71
2023/10/24 13:48:26;;;;;;;;;;;13.20;99.90;;;;;;5038537;28;20276;-71
2023/10/24 13:50:52;;;;;;;;;;;13.20;99.90;;;;;;5038484;28;19916;-71
2023/10/24 13:53:17;;;;;;;;;;;13.20;99.90;;;;;;5033375;28;19920;-71
2023/10/24 13:55:43;;;;;;;;;;;13.10;99.90;;;;;;5038146;28;21063;-71
2023/10/24 13:58:08;;;;;;;;;;;13.20;99.90;;;;;;5037934;28;19920;-71
2023/10/24 14:00:34;;;;;;;;;;;13.10;99.90;;;;;;5033938;28;19909;-70
2023/10/24 14:03:00;;;;;;;;;;;13.00;99.90;;;;;;5037779;28;20688;-71
2023/10/24 14:05:25;;;;;;;;;;;12.90;99.90;;;;;;5030378;28;20344;-71
2023/10/24 14:07:52;;;;;;;;;;;12.90;99.90;;;;;;5036676;28;19971;-71
2023/10/24 14:10:18;;;;;;;;;;;12.90;99.90;;;;;;5041091;28;19916;-71